Terminal Aerodrome Forecast
Issued by NWS Denver/Boulder, CO

Home | Current Version | Previous Version | Text Only | Print | Product List | Glossary On
Versions: 1 2 3 4 5 6 7 8 9 10 11 12 13 14 15 16 17 18 19 20 21 22 23 24 25 26 27 28 29 30 31 32 33 34 35 36 37 38 39 40 41 42 43 44 45 46 47 48 49 50
000
FTUS45 KBOU 260645 AAC
TAFDEN
TAF AMD
KDEN 260645Z 2607/2712 33015G25KT P6SM VCTS SCT060CB BKN090
      TEMPO 2607/2608 33030G40KT 2SM +TSRA BKN025CB
     FM260800 36008KT P6SM VCSH SCT060 BKN090
     FM261200 23006KT P6SM SCT030 BKN080
      TEMPO 2612/2615 BKN030
     FM261800 11012KT P6SM VCTS SCT050CB BKN100
      TEMPO 2620/2624 3SM TSRAGS BKN050CB
     FM270100 13009KT P6SM FEW050 SCT110 BKN150
     FM270600 02008KT P6SM VCSH BKN030=

USA.gov is the U.S. government's official web portal to all federal, state and local government web resources and services.